createdAt,value
2023-01-12T00:02:17.681Z,28.05
2023-01-12T00:04:44.848Z,26.65
2023-01-12T00:07:32.145Z,26.13
2023-01-12T00:10:18.367Z,24.13
2023-01-12T00:12:45.317Z,25.70
2023-01-12T00:15:12.358Z,25.98
2023-01-12T00:17:40.246Z,28.50
2023-01-12T00:20:27.153Z,29.45
2023-01-12T00:23:28.284Z,31.70
2023-01-12T00:26:09.428Z,28.23
2023-01-12T00:28:37.212Z,28.80
2023-01-12T00:31:08.531Z,26.63
2023-01-12T00:33:36.976Z,27.63
2023-01-12T00:36:25.175Z,26.55
2023-01-12T00:39:27.233Z,24.75
2023-01-12T00:42:12.851Z,23.25
2023-01-12T00:44:58.415Z,24.15
2023-01-12T00:47:25.929Z,26.45
2023-01-12T00:49:53.354Z,25.30
2023-01-12T00:52:37.018Z,28.25
2023-01-12T00:55:04.612Z,25.92
2023-01-12T00:57:32.057Z,26.30
2023-01-12T01:00:00.334Z,23.30
2023-01-12T01:02:29.404Z,25.02
2023-01-12T01:04:57.078Z,24.98
2023-01-12T01:07:44.265Z,25.08
2023-01-12T01:10:45.257Z,24.58
2023-01-12T01:13:36.579Z,25.92
2023-01-12T01:16:05.959Z,26.48
2023-01-12T01:18:37.283Z,25.60
2023-01-12T01:21:05.237Z,21.98
2023-01-12T01:23:37.033Z,24.83
2023-01-12T01:26:10.410Z,25.42
2023-01-12T01:28:37.770Z,23.55
2023-01-12T01:31:05.999Z,25.73
2023-01-12T01:33:53.192Z,23.92
2023-01-12T01:36:54.239Z,24.58
2023-01-12T01:39:41.924Z,24.42
2023-01-12T01:44:58.495Z,22.98
2023-01-12T01:47:39.971Z,23.08
2023-01-12T01:50:32.356Z,23.75
2023-01-12T01:53:04.398Z,23.67
2023-01-12T01:55:54.717Z,24.70
2023-01-12T01:58:36.399Z,23.55
2023-01-12T02:01:24.294Z,23.98
2023-01-12T02:04:06.571Z,25.35
2023-01-12T02:06:34.201Z,28.88
2023-01-12T02:09:34.242Z,24.70
2023-01-12T02:12:33.470Z,24.90
2023-01-12T02:15:19.637Z,21.15
2023-01-12T02:18:32.262Z,22.38
2023-01-12T02:21:33.782Z,25.75
2023-01-12T02:24:31.607Z,23.10
2023-01-12T02:27:23.024Z,22.70
2023-01-12T02:30:03.064Z,22.73
2023-01-12T02:32:49.022Z,21.38
2023-01-12T02:35:21.899Z,23.25
2023-01-12T02:38:46.422Z,21.13
2023-01-12T02:42:12.081Z,22.02
2023-01-12T02:45:03.407Z,23.63
2023-01-12T02:47:44.012Z,23.05
2023-01-12T02:50:57.314Z,24.42
2023-01-12T02:53:44.790Z,24.83
2023-01-12T02:56:19.541Z,25.60
2023-01-12T02:58:50.924Z,28.35
2023-01-12T03:01:20.851Z,25.02
2023-01-12T03:03:53.231Z,26.83
2023-01-12T03:06:20.219Z,25.70
2023-01-12T03:09:07.252Z,27.92
2023-01-12T03:11:51.530Z,27.65
2023-01-12T03:14:19.006Z,23.42
2023-01-12T03:16:46.555Z,23.67
2023-01-12T03:19:22.905Z,22.40
2023-01-12T03:21:57.572Z,23.38
2023-01-12T03:24:54.389Z,27.42
2023-01-12T03:27:36.129Z,22.10
2023-01-12T03:30:16.772Z,21.30
2023-01-12T03:32:44.421Z,24.38
2023-01-12T03:35:13.521Z,24.85
2023-01-12T03:38:26.320Z,22.85
2023-01-12T03:41:39.261Z,26.10
2023-01-12T03:44:28.828Z,23.75
2023-01-12T03:47:01.101Z,24.15
2023-01-12T03:49:34.124Z,24.70
2023-01-12T03:52:04.313Z,24.85
2023-01-12T03:54:33.813Z,25.08
2023-01-12T03:57:02.283Z,24.77
2023-01-12T03:59:29.367Z,23.50
2023-01-12T04:01:56.691Z,24.92
2023-01-12T04:04:23.807Z,27.55
2023-01-12T04:06:50.949Z,27.42
2023-01-12T04:09:38.309Z,26.67
2023-01-12T04:12:19.150Z,26.88
2023-01-12T04:14:48.190Z,25.83
2023-01-12T04:17:16.056Z,24.08
2023-01-12T04:19:43.588Z,25.08
2023-01-12T04:22:33.540Z,26.60
2023-01-12T04:25:00.580Z,22.92
2023-01-12T04:27:47.246Z,24.75
2023-01-12T04:30:48.356Z,25.23
2023-01-12T04:33:44.123Z,24.38
2023-01-12T04:36:11.641Z,24.38
2023-01-12T04:39:12.293Z,24.17
2023-01-12T04:41:52.833Z,24.02
2023-01-12T04:44:20.485Z,26.15
2023-01-12T04:46:51.207Z,23.20
2023-01-12T04:49:18.282Z,24.42
2023-01-12T04:52:05.360Z,23.48
2023-01-12T04:55:06.336Z,23.40
2023-01-12T04:58:07.314Z,21.50
2023-01-12T05:00:38.287Z,21.98
2023-01-12T05:03:05.676Z,27.77
2023-01-12T05:05:34.186Z,27.52
2023-01-12T05:08:41.342Z,24.92
2023-01-12T05:11:26.318Z,23.42
2023-01-12T05:13:53.520Z,23.42
2023-01-12T05:16:20.634Z,24.40
2023-01-12T05:18:48.032Z,26.17
2023-01-12T05:21:16.655Z,26.02
2023-01-12T05:24:05.328Z,25.73
2023-01-12T05:26:46.017Z,26.77
2023-01-12T05:29:13.299Z,24.95
2023-01-12T05:31:40.528Z,25.48
2023-01-12T05:34:07.484Z,25.75
2023-01-12T05:36:54.355Z,25.67
2023-01-12T05:39:48.520Z,27.63
2023-01-12T05:42:57.986Z,27.35
2023-01-12T05:45:24.936Z,28.00
2023-01-12T05:48:01.974Z,28.35
2023-01-12T05:50:49.360Z,26.45
2023-01-12T05:53:30.679Z,25.25
2023-01-12T05:56:02.776Z,25.30
2023-01-12T05:58:29.929Z,23.55
2023-01-12T06:00:57.004Z,23.67
2023-01-12T06:03:24.185Z,22.95
2023-01-12T06:05:56.009Z,24.50
2023-01-12T06:08:43.374Z,23.75
2023-01-12T06:12:02.378Z,25.58
2023-01-12T06:14:56.339Z,26.15
2023-01-12T06:17:37.128Z,24.85
2023-01-12T06:20:04.850Z,25.85
2023-01-12T06:22:31.983Z,24.20
2023-01-12T06:24:58.980Z,26.95
2023-01-12T06:27:26.251Z,26.67
2023-01-12T06:30:13.366Z,24.83
2023-01-12T06:32:54.064Z,25.27
2023-01-12T06:35:21.212Z,24.38
2023-01-12T06:38:11.429Z,24.75
2023-01-12T06:41:40.385Z,25.77
2023-01-12T06:44:21.098Z,26.08
2023-01-12T06:47:03.924Z,24.65
2023-01-12T06:49:51.497Z,26.80
2023-01-12T06:52:32.235Z,25.13
2023-01-12T06:54:59.532Z,26.77
2023-01-12T06:57:26.676Z,26.75
2023-01-12T06:59:54.064Z,25.15
2023-01-12T07:02:21.673Z,24.05
2023-01-12T07:04:49.226Z,27.42
2023-01-12T07:07:37.589Z,24.65
2023-01-12T07:10:21.390Z,23.92
2023-01-12T07:12:48.949Z,26.83
2023-01-12T07:15:40.481Z,26.30
2023-01-12T07:18:42.421Z,25.65
2023-01-12T07:21:22.945Z,27.48
2023-01-12T07:24:10.457Z,24.98
2023-01-12T07:27:12.411Z,27.25
2023-01-12T07:29:53.999Z,27.15
2023-01-12T07:32:20.982Z,26.63
2023-01-12T07:34:48.176Z,25.55
2023-01-12T07:37:18.553Z,21.90
2023-01-12T07:40:06.426Z,26.45
2023-01-12T07:42:47.675Z,23.13
2023-01-12T07:45:14.746Z,23.55
2023-01-12T07:47:41.818Z,24.10
2023-01-12T07:50:29.618Z,25.20
2023-01-12T07:53:10.328Z,22.08
2023-01-12T07:55:39.799Z,23.17
2023-01-12T07:58:07.905Z,24.30
2023-01-12T08:00:36.966Z,27.40
2023-01-12T08:03:10.374Z,26.10
2023-01-12T08:05:39.016Z,25.05
2023-01-12T08:08:26.436Z,26.45
2023-01-12T08:11:14.431Z,21.63
2023-01-12T08:14:09.004Z,23.52
2023-01-12T08:17:12.529Z,23.75
2023-01-12T08:19:59.785Z,28.55
2023-01-12T08:22:36.162Z,26.20
2023-01-12T08:25:28.413Z,25.25
2023-01-12T08:28:09.811Z,27.95
2023-01-12T08:30:37.051Z,26.83
2023-01-12T08:33:04.777Z,26.02
2023-01-12T08:35:34.949Z,28.48
2023-01-12T08:38:02.630Z,25.48
2023-01-12T08:41:08.493Z,23.83
2023-01-12T08:44:09.414Z,24.25
2023-01-12T08:46:55.020Z,24.67
2023-01-12T08:49:43.416Z,24.38
2023-01-12T08:52:24.048Z,24.00
2023-01-12T08:54:51.064Z,21.38
2023-01-12T08:57:19.626Z,24.23
2023-01-12T08:59:46.946Z,24.85
2023-01-12T09:02:15.688Z,24.08
2023-01-12T09:04:42.986Z,24.50
2023-01-12T09:07:30.476Z,23.20
2023-01-12T09:10:18.882Z,22.23
2023-01-12T09:13:06.460Z,24.70
2023-01-12T09:16:01.225Z,23.77
2023-01-12T09:18:35.123Z,26.75
2023-01-12T09:21:10.349Z,22.42
2023-01-12T09:23:38.304Z,26.67
2023-01-12T09:26:11.503Z,25.10
2023-01-12T09:28:39.037Z,22.50
2023-01-12T09:31:09.083Z,23.95
2023-01-12T09:33:38.093Z,24.00
2023-01-12T09:36:10.759Z,24.92
2023-01-12T09:38:59.465Z,20.30
2023-01-12T09:42:20.473Z,20.85
2023-01-12T09:45:22.274Z,24.13
2023-01-12T09:48:01.385Z,23.50
2023-01-12T09:50:33.641Z,22.98
2023-01-12T09:53:21.469Z,22.02
2023-01-12T09:56:09.687Z,23.27
2023-01-12T09:58:55.654Z,23.50
2023-01-12T10:01:29.258Z,23.60
2023-01-12T10:04:01.314Z,23.65
2023-01-12T10:06:29.068Z,23.45
2023-01-12T10:09:20.520Z,23.65
2023-01-12T10:12:14.330Z,24.83
2023-01-12T10:15:19.478Z,25.58
2023-01-12T10:18:21.234Z,23.75
2023-01-12T10:20:50.414Z,22.13
2023-01-12T10:23:40.529Z,25.00
2023-01-12T10:26:52.516Z,23.40
2023-01-12T10:29:33.533Z,22.33
2023-01-12T10:32:00.725Z,22.63
2023-01-12T10:34:28.162Z,23.35
2023-01-12T10:37:00.995Z,22.63
2023-01-12T10:39:31.727Z,24.50
2023-01-12T10:42:36.335Z,25.65
2023-01-12T10:50:44.637Z,24.00
2023-01-12T10:53:45.527Z,21.65
2023-01-12T10:56:36.479Z,23.95
2023-01-12T10:59:16.981Z,22.73
2023-01-12T11:01:53.061Z,23.00
2023-01-12T11:04:43.526Z,23.80
2023-01-12T11:07:45.464Z,22.60
2023-01-12T11:10:51.504Z,23.23
2023-01-12T11:13:30.589Z,23.00
2023-01-12T11:16:13.514Z,22.45
2023-01-12T11:19:59.602Z,24.95
2023-01-12T11:29:34.501Z,21.20
2023-01-12T11:32:39.597Z,24.23
2023-01-12T11:35:41.573Z,29.65
2023-01-12T11:38:58.504Z,24.38
2023-01-12T11:42:13.725Z,24.80
2023-01-12T11:45:07.072Z,27.60
2023-01-12T11:47:42.292Z,26.30
2023-01-12T11:50:46.538Z,26.40
2023-01-12T11:53:27.199Z,24.20
2023-01-12T11:55:54.165Z,25.13
2023-01-12T11:58:51.546Z,24.55
2023-01-12T12:01:51.998Z,21.75
2023-01-12T12:05:24.533Z,24.95
2023-01-12T12:08:27.742Z,23.88
2023-01-12T12:11:23.689Z,23.25
2023-01-12T12:13:58.153Z,21.88
2023-01-12T12:16:34.479Z,24.60
2023-01-12T12:19:27.322Z,24.15
2023-01-12T12:22:12.569Z,25.48
2023-01-12T12:24:47.130Z,24.25
2023-01-12T12:27:36.208Z,24.90
2023-01-12T12:30:28.509Z,23.45
2023-01-12T12:33:04.799Z,22.40
2023-01-12T12:36:03.588Z,24.30
2023-01-12T12:39:22.612Z,23.55
2023-01-12T12:42:29.774Z,20.27
2023-01-12T12:45:34.563Z,20.55
2023-01-12T12:49:04.972Z,22.73
2023-01-12T12:52:56.039Z,22.75
2023-01-12T13:38:21.602Z,21.88
2023-01-12T13:41:15.049Z,23.50
2023-01-12T13:44:06.641Z,24.40
2023-01-12T13:47:17.034Z,24.50
2023-01-12T13:50:50.367Z,23.63
2023-01-12T13:53:53.636Z,24.10
2023-01-12T13:56:57.721Z,22.75
2023-01-12T13:59:38.875Z,21.80
2023-01-12T14:02:19.166Z,22.95
2023-01-12T14:05:02.150Z,24.63
2023-01-12T14:08:04.626Z,22.60
2023-01-12T14:11:36.277Z,23.83
2023-01-12T14:33:05.782Z,24.50
2023-01-12T14:36:20.627Z,24.83
2023-01-12T14:39:25.647Z,23.02
2023-01-12T14:42:14.113Z,24.75
2023-01-12T14:45:27.724Z,25.38
2023-01-12T14:48:39.072Z,24.55
2023-01-12T14:51:42.637Z,25.38
2023-01-12T14:54:46.666Z,22.63
2023-01-12T14:57:50.640Z,23.75
2023-01-12T15:00:36.695Z,26.60
2023-01-12T15:03:22.730Z,24.70
2023-01-12T15:05:55.295Z,24.67
2023-01-12T15:08:42.673Z,26.15
2023-01-12T15:11:36.978Z,24.63
2023-01-12T15:14:38.031Z,24.70
2023-01-12T15:17:38.413Z,25.17
2023-01-12T15:20:24.808Z,25.98
2023-01-12T15:23:20.662Z,25.48
2023-01-12T15:26:21.566Z,27.15
2023-01-12T15:28:50.126Z,27.73
2023-01-12T15:31:34.543Z,27.42
2023-01-12T15:37:03.806Z,23.65
2023-01-12T15:39:31.443Z,26.67
2023-01-12T15:42:29.742Z,27.60
2023-01-12T15:45:30.840Z,26.77
2023-01-12T15:48:15.797Z,28.45
2023-01-12T15:51:03.702Z,28.23
2023-01-12T15:53:45.022Z,28.45
2023-01-12T15:56:16.680Z,27.77
2023-01-12T15:58:44.826Z,25.48
2023-01-12T16:01:22.338Z,26.33
2023-01-12T16:04:44.055Z,27.55
2023-01-12T16:07:59.602Z,27.98
2023-01-12T16:13:34.856Z,30.52
2023-01-12T16:16:30.681Z,30.67
2023-01-12T16:29:27.790Z,26.30
2023-01-12T16:34:45.238Z,28.02
2023-01-12T16:37:36.888Z,27.25
2023-01-12T16:43:33.682Z,30.88
2023-01-12T16:49:13.945Z,27.95
2023-01-12T16:51:50.330Z,27.65
2023-01-12T16:54:21.348Z,29.45
2023-01-12T16:57:19.297Z,30.70
2023-01-12T17:00:56.108Z,28.70
2023-01-12T17:04:20.715Z,30.98
2023-01-12T17:08:03.673Z,29.95
2023-01-12T17:17:41.602Z,28.88
2023-01-12T17:20:41.049Z,30.60
2023-01-12T17:23:48.719Z,30.48
2023-01-12T17:28:05.105Z,34.75
2023-01-12T17:31:12.470Z,31.75
2023-01-12T17:34:06.601Z,31.42
2023-01-12T17:36:43.921Z,33.95
2023-01-12T17:39:47.075Z,31.17
2023-01-12T17:43:10.766Z,33.40
2023-01-12T17:46:33.971Z,31.02
2023-01-12T17:53:11.925Z,33.05
2023-01-12T17:57:13.746Z,31.92
2023-01-12T18:01:49.675Z,31.88
2023-01-12T18:08:48.691Z,30.98
2023-01-12T18:12:06.824Z,34.25
2023-01-12T18:18:37.808Z,36.20
2023-01-12T18:22:12.199Z,39.40
2023-01-12T18:28:23.810Z,29.90
2023-01-12T18:31:49.765Z,36.58
2023-01-12T18:37:35.799Z,34.75
2023-01-12T18:40:27.576Z,36.95
2023-01-12T18:43:36.537Z,37.30
2023-01-12T18:51:42.759Z,32.60
2023-01-12T18:55:31.428Z,33.33
2023-01-12T18:58:55.829Z,32.25
2023-01-12T19:04:37.318Z,35.92
2023-01-12T19:07:49.907Z,33.35
2023-01-12T19:11:14.109Z,33.13
2023-01-12T19:14:55.329Z,37.50
2023-01-12T19:18:08.833Z,34.30
2023-01-12T19:21:25.971Z,41.53
2023-01-12T19:24:23.601Z,38.13
2023-01-12T19:29:54.309Z,37.65
2023-01-12T19:35:24.179Z,34.97
2023-01-12T19:37:55.215Z,38.38
2023-01-12T19:41:01.335Z,34.47
2023-01-12T19:43:37.124Z,38.60
2023-01-12T19:46:13.501Z,40.22
2023-01-12T19:55:02.472Z,35.80
2023-01-12T19:57:32.424Z,33.92
2023-01-12T20:00:25.672Z,34.25
2023-01-12T20:03:46.942Z,34.03
2023-01-12T20:06:30.603Z,34.75
2023-01-12T20:09:40.121Z,36.08
2023-01-12T20:12:25.848Z,31.80
2023-01-12T20:15:20.959Z,33.10
2023-01-12T20:18:21.845Z,32.72
2023-01-12T20:21:12.910Z,32.58
2023-01-12T20:28:08.431Z,29.75
2023-01-12T20:30:41.540Z,32.95
2023-01-12T20:33:32.123Z,35.63
2023-01-12T20:36:15.184Z,32.67
2023-01-12T20:38:43.116Z,34.47
2023-01-12T20:41:12.222Z,34.75
2023-01-12T20:43:44.014Z,37.88
2023-01-12T20:46:14.855Z,32.13
2023-01-12T20:48:45.745Z,35.97
2023-01-12T20:51:33.635Z,35.83
2023-01-12T20:54:14.553Z,34.55
2023-01-12T20:56:45.135Z,36.08
2023-01-12T20:59:13.442Z,37.70
2023-01-12T21:01:41.539Z,38.20
2023-01-12T21:04:11.736Z,36.00
2023-01-12T21:06:43.162Z,38.97
2023-01-12T21:09:30.987Z,31.17
2023-01-12T21:12:18.932Z,35.53
2023-01-12T21:15:24.955Z,33.30
2023-01-12T21:17:59.807Z,34.72
2023-01-12T21:20:27.140Z,36.65
2023-01-12T21:22:54.425Z,41.42
2023-01-12T21:25:22.610Z,38.97
2023-01-12T21:27:49.935Z,37.10
2023-01-12T21:30:17.544Z,36.00
2023-01-12T21:32:44.480Z,38.55
2023-01-12T21:35:12.386Z,36.58
2023-01-12T21:37:40.128Z,36.72
2023-01-12T21:40:08.723Z,36.30
2023-01-12T21:43:14.055Z,36.10
2023-01-12T21:46:23.937Z,38.50
2023-01-12T21:49:07.454Z,37.28
2023-01-12T21:51:58.616Z,38.85
2023-01-12T21:54:39.874Z,36.70
2023-01-12T21:57:09.890Z,37.30
2023-01-12T21:59:44.577Z,37.60
2023-01-12T22:02:15.479Z,38.17
2023-01-12T22:04:43.709Z,38.38
2023-01-12T22:07:26.857Z,39.80
2023-01-12T22:10:21.794Z,36.42
2023-01-12T22:13:17.152Z,41.95
2023-01-12T22:16:05.614Z,39.53
2023-01-12T22:18:56.974Z,40.80
2023-01-12T22:21:43.264Z,39.70
2023-01-12T22:24:10.791Z,39.38
2023-01-12T22:26:40.202Z,37.17
2023-01-12T22:29:08.153Z,37.70
2023-01-12T22:31:57.641Z,37.45
2023-01-12T22:35:11.247Z,36.63
2023-01-12T22:37:55.388Z,35.17
2023-01-12T22:40:23.128Z,39.45
2023-01-12T22:43:15.855Z,37.60
2023-01-12T22:45:45.578Z,40.25
2023-01-12T22:48:14.348Z,35.72
2023-01-12T22:50:41.559Z,35.45
2023-01-12T22:53:09.494Z,38.75
2023-01-12T22:55:40.703Z,37.58
2023-01-12T22:58:09.538Z,42.55
2023-01-12T23:00:40.161Z,43.70
2023-01-12T23:03:09.280Z,43.55
2023-01-12T23:05:45.838Z,38.42
2023-01-12T23:08:38.434Z,42.45
2023-01-12T23:11:40.642Z,42.83
2023-01-12T23:14:27.461Z,40.67
2023-01-12T23:16:55.383Z,41.83
2023-01-12T23:19:26.217Z,35.08
2023-01-12T23:21:57.964Z,36.38
2023-01-12T23:24:26.214Z,36.38
2023-01-12T23:26:54.441Z,35.40
2023-01-12T23:29:22.252Z,36.75
2023-01-12T23:31:52.648Z,42.67
2023-01-12T23:34:21.575Z,37.67
2023-01-12T23:36:50.139Z,39.40
2023-01-12T23:39:18.050Z,42.85
2023-01-12T23:41:45.254Z,40.97
2023-01-12T23:44:18.197Z,36.97
2023-01-12T23:46:46.337Z,38.42
2023-01-12T23:49:14.322Z,39.65
2023-01-12T23:52:16.075Z,36.03
2023-01-12T23:54:58.918Z,38.35
2023-01-12T23:57:29.298Z,39.28
